KPGV/PGV METAR and TAF weather

Enter ICAO airport designator
Station Type Date Time Source
KPGV METAR 2020/06/06 19:55 UTC NOAA

KPGV 061955Z AUTO 30003KT CLR 30/23 A2990 RMK AO2 P0004 PWINO


Station Type Date Time Source
KPGV Decoded METAR 2020/06/06 19:55 UTC NOAA

Pitt-Greenville Airport, NC, United States (KPGV) 35-38N 077-24W
Jun 06, 2020 - 03:55 PM EDT / 2020.06.06 1955 UTC
Wind: from the WNW (300 degrees) at 3 MPH (3 KT):0
Sky conditions: clear
Precipitation last hour: 0.04 inches
Temperature: 86 F (30 C)
Heat index: 93.4 F (34.1 C):1
Dew Point: 73 F (23 C)
Relative Humidity: 66%
Pressure (altimeter): 29.9 in. Hg (1012 hPa)
ob: KPGV 061955Z AUTO 30003KT CLR 30/23 A2990 RMK AO2 P0004 PWINO
cycle: 20

Station Type Date Time Source
KPGV TAF 2020/06/06 18:52 UTC NOAA

TAF
AMD KPGV 061750Z 0618/0718 26007KT P6SM VCSH BKN035
FM062000 27008G13KT P6SM BKN040
FM062300 25005KT P6SM SCT250
FM070700 32005KT P6SM SCT050
AMD LTD TO CLD VIS AND WIND

Example: see airport list